Aguilar, Colorado
Current Conditions -  °F | °C
As of 3:01 PM on Tuesday 21 Oct 2014 (Local Time) from KTAD Reporting Station
Clear Clear  
Wind Chill: 70°   Ceiling: Unl
Heat Index: 70°   Visibility: 10mi
Dew Point: 41°   Wind: 15mph
Humidity: 35%   Direction: 200°SSW
Pressure: 30.01"   Gusts: 21mph
Location:  37.4°N, 104.65°W
Report Text: KTAD 212101Z AUTO 20013G18KT 10SM CLR 21/05 A3001 RMK AO2 WSHFT 2041 T02110050
Loading
Personal Weather Stations






























Interactive Weather Map
Tropical Storm Tracking
New forecast layout! Learn more

10-Day Weather Forecast

Advertisements
Track Severe Weather on mobile